sensor_id;sensor_type;location;lat;lon;timestamp;temperature;humidity
18998;DHT22;9632;51.018;4.284;2023-04-25T00:00:50;11.00;99.90
18998;DHT22;9632;51.018;4.284;2023-04-25T00:03:17;11.00;99.90
18998;DHT22;9632;51.018;4.284;2023-04-25T00:05:43;11.00;99.90
18998;DHT22;9632;51.018;4.284;2023-04-25T00:08:10;11.00;99.90
18998;DHT22;9632;51.018;4.284;2023-04-25T00:10:36;11.00;99.90
18998;DHT22;9632;51.018;4.284;2023-04-25T00:13:02;11.00;99.90
18998;DHT22;9632;51.018;4.284;2023-04-25T00:15:28;11.00;99.90
18998;DHT22;9632;51.018;4.284;2023-04-25T00:17:56;11.00;99.90
18998;DHT22;9632;51.018;4.284;2023-04-25T00:20:22;11.00;99.90
18998;DHT22;9632;51.018;4.284;2023-04-25T00:22:49;11.00;99.90
18998;DHT22;9632;51.018;4.284;2023-04-25T00:25:14;11.00;99.90
18998;DHT22;9632;51.018;4.284;2023-04-25T00:27:40;11.00;99.90
18998;DHT22;9632;51.018;4.284;2023-04-25T00:30:07;11.00;99.90
18998;DHT22;9632;51.018;4.284;2023-04-25T00:32:33;11.00;99.90
18998;DHT22;9632;51.018;4.284;2023-04-25T00:34:59;11.00;99.90
18998;DHT22;9632;51.018;4.284;2023-04-25T00:37:25;11.00;99.90
18998;DHT22;9632;51.018;4.284;2023-04-25T00:39:51;11.00;99.90
18998;DHT22;9632;51.018;4.284;2023-04-25T00:42:19;11.00;99.90
18998;DHT22;9632;51.018;4.284;2023-04-25T00:44:45;11.00;99.90
18998;DHT22;9632;51.018;4.284;2023-04-25T00:47:11;11.00;99.90
18998;DHT22;9632;51.018;4.284;2023-04-25T00:49:36;11.00;99.90
18998;DHT22;9632;51.018;4.284;2023-04-25T00:52:02;10.90;99.90
18998;DHT22;9632;51.018;4.284;2023-04-25T00:54:28;11.00;99.90
18998;DHT22;9632;51.018;4.284;2023-04-25T00:56:53;10.90;99.90
18998;DHT22;9632;51.018;4.284;2023-04-25T00:59:20;10.90;99.90
18998;DHT22;9632;51.018;4.284;2023-04-25T01:01:46;10.90;99.90
18998;DHT22;9632;51.018;4.284;2023-04-25T01:04:12;10.90;99.90
18998;DHT22;9632;51.018;4.284;2023-04-25T01:06:38;11.00;99.90
18998;DHT22;9632;51.018;4.284;2023-04-25T01:09:04;10.90;99.90
18998;DHT22;9632;51.018;4.284;2023-04-25T01:11:30;10.90;99.90
18998;DHT22;9632;51.018;4.284;2023-04-25T01:13:56;10.90;99.90
18998;DHT22;9632;51.018;4.284;2023-04-25T01:16:22;10.90;99.90
18998;DHT22;9632;51.018;4.284;2023-04-25T01:18:50;10.90;99.90
18998;DHT22;9632;51.018;4.284;2023-04-25T01:21:17;10.90;99.90
18998;DHT22;9632;51.018;4.284;2023-04-25T01:23:42;10.90;99.90
18998;DHT22;9632;51.018;4.284;2023-04-25T01:26:10;10.90;99.90
18998;DHT22;9632;51.018;4.284;2023-04-25T01:28:37;10.90;99.90
18998;DHT22;9632;51.018;4.284;2023-04-25T01:31:04;10.90;99.90
18998;DHT22;9632;51.018;4.284;2023-04-25T01:33:31;10.90;99.90
18998;DHT22;9632;51.018;4.284;2023-04-25T01:35:56;10.90;99.90
18998;DHT22;9632;51.018;4.284;2023-04-25T01:38:22;10.90;99.90
18998;DHT22;9632;51.018;4.284;2023-04-25T01:40:49;10.90;99.90
18998;DHT22;9632;51.018;4.284;2023-04-25T01:43:16;10.90;99.90
18998;DHT22;9632;51.018;4.284;2023-04-25T01:45:42;10.90;99.90
18998;DHT22;9632;51.018;4.284;2023-04-25T01:48:09;10.90;99.90
18998;DHT22;9632;51.018;4.284;2023-04-25T01:50:36;10.90;99.90
18998;DHT22;9632;51.018;4.284;2023-04-25T01:53:02;10.90;99.90
18998;DHT22;9632;51.018;4.284;2023-04-25T01:55:29;10.80;99.90
18998;DHT22;9632;51.018;4.284;2023-04-25T01:57:55;10.90;99.90
18998;DHT22;9632;51.018;4.284;2023-04-25T02:00:20;10.80;99.90
18998;DHT22;9632;51.018;4.284;2023-04-25T02:02:46;10.80;99.90
18998;DHT22;9632;51.018;4.284;2023-04-25T02:05:12;10.90;99.90
18998;DHT22;9632;51.018;4.284;2023-04-25T02:07:37;10.80;99.90
18998;DHT22;9632;51.018;4.284;2023-04-25T02:10:03;10.80;99.90
18998;DHT22;9632;51.018;4.284;2023-04-25T02:12:30;10.80;99.90
18998;DHT22;9632;51.018;4.284;2023-04-25T02:14:56;10.80;99.90
18998;DHT22;9632;51.018;4.284;2023-04-25T02:17:21;10.80;99.90
18998;DHT22;9632;51.018;4.284;2023-04-25T02:19:47;10.80;99.90
18998;DHT22;9632;51.018;4.284;2023-04-25T02:22:13;10.80;99.90
18998;DHT22;9632;51.018;4.284;2023-04-25T02:24:39;10.80;99.90
18998;DHT22;9632;51.018;4.284;2023-04-25T02:27:05;10.80;99.90
18998;DHT22;9632;51.018;4.284;2023-04-25T02:29:31;10.80;99.90
18998;DHT22;9632;51.018;4.284;2023-04-25T02:31:57;10.80;99.90
18998;DHT22;9632;51.018;4.284;2023-04-25T02:34:22;10.80;99.90
18998;DHT22;9632;51.018;4.284;2023-04-25T02:36:48;10.80;99.90
18998;DHT22;9632;51.018;4.284;2023-04-25T02:39:16;10.70;99.90
18998;DHT22;9632;51.018;4.284;2023-04-25T02:41:42;10.70;99.90
18998;DHT22;9632;51.018;4.284;2023-04-25T02:44:07;10.70;99.90
18998;DHT22;9632;51.018;4.284;2023-04-25T02:46:33;10.70;99.90
18998;DHT22;9632;51.018;4.284;2023-04-25T02:48:59;10.70;99.90
18998;DHT22;9632;51.018;4.284;2023-04-25T02:51:24;10.70;99.90
18998;DHT22;9632;51.018;4.284;2023-04-25T02:53:50;10.70;99.90
18998;DHT22;9632;51.018;4.284;2023-04-25T02:56:16;10.70;99.90
18998;DHT22;9632;51.018;4.284;2023-04-25T02:58:41;10.60;99.90
18998;DHT22;9632;51.018;4.284;2023-04-25T03:01:07;10.60;99.90
18998;DHT22;9632;51.018;4.284;2023-04-25T03:03:32;10.50;99.90
18998;DHT22;9632;51.018;4.284;2023-04-25T03:05:58;10.50;99.90
18998;DHT22;9632;51.018;4.284;2023-04-25T03:08:24;10.50;99.90
18998;DHT22;9632;51.018;4.284;2023-04-25T03:10:50;10.40;99.90
18998;DHT22;9632;51.018;4.284;2023-04-25T03:13:17;10.40;99.90
18998;DHT22;9632;51.018;4.284;2023-04-25T03:15:43;10.40;99.90
18998;DHT22;9632;51.018;4.284;2023-04-25T03:18:09;10.40;99.90
18998;DHT22;9632;51.018;4.284;2023-04-25T03:20:35;10.40;99.90
18998;DHT22;9632;51.018;4.284;2023-04-25T03:23:00;10.40;99.90
18998;DHT22;9632;51.018;4.284;2023-04-25T03:25:26;10.40;99.90
18998;DHT22;9632;51.018;4.284;2023-04-25T03:27:52;10.40;99.90
18998;DHT22;9632;51.018;4.284;2023-04-25T03:30:17;10.40;99.90
18998;DHT22;9632;51.018;4.284;2023-04-25T03:32:43;10.40;99.90
18998;DHT22;9632;51.018;4.284;2023-04-25T03:35:09;10.40;99.90
18998;DHT22;9632;51.018;4.284;2023-04-25T03:37:34;10.40;99.90
18998;DHT22;9632;51.018;4.284;2023-04-25T03:40:00;10.40;99.90
18998;DHT22;9632;51.018;4.284;2023-04-25T03:42:25;10.40;99.90
18998;DHT22;9632;51.018;4.284;2023-04-25T03:44:52;10.40;99.90
18998;DHT22;9632;51.018;4.284;2023-04-25T03:47:18;10.40;99.90
18998;DHT22;9632;51.018;4.284;2023-04-25T03:49:43;10.40;99.90
18998;DHT22;9632;51.018;4.284;2023-04-25T03:52:09;10.40;99.90
18998;DHT22;9632;51.018;4.284;2023-04-25T03:54:35;10.40;99.90
18998;DHT22;9632;51.018;4.284;2023-04-25T03:57:01;10.40;99.90
18998;DHT22;9632;51.018;4.284;2023-04-25T03:59:26;10.50;99.90
18998;DHT22;9632;51.018;4.284;2023-04-25T04:01:52;10.50;99.90
18998;DHT22;9632;51.018;4.284;2023-04-25T04:04:18;10.50;99.90
18998;DHT22;9632;51.018;4.284;2023-04-25T04:06:44;10.40;99.90
18998;DHT22;9632;51.018;4.284;2023-04-25T04:09:09;10.40;99.90
18998;DHT22;9632;51.018;4.284;2023-04-25T04:11:37;10.40;99.90
18998;DHT22;9632;51.018;4.284;2023-04-25T04:14:05;10.30;99.90
18998;DHT22;9632;51.018;4.284;2023-04-25T04:16:31;10.20;99.90
18998;DHT22;9632;51.018;4.284;2023-04-25T04:18:56;10.00;99.90
18998;DHT22;9632;51.018;4.284;2023-04-25T04:21:22;10.00;99.90
18998;DHT22;9632;51.018;4.284;2023-04-25T04:23:48;10.00;99.90
18998;DHT22;9632;51.018;4.284;2023-04-25T04:26:14;9.90;99.90
18998;DHT22;9632;51.018;4.284;2023-04-25T04:28:42;9.90;99.90
18998;DHT22;9632;51.018;4.284;2023-04-25T04:31:09;9.90;99.90
18998;DHT22;9632;51.018;4.284;2023-04-25T04:33:35;9.90;99.90
18998;DHT22;9632;51.018;4.284;2023-04-25T04:36:02;9.90;99.90
18998;DHT22;9632;51.018;4.284;2023-04-25T04:38:29;9.90;99.90
18998;DHT22;9632;51.018;4.284;2023-04-25T04:40:55;9.90;99.90
18998;DHT22;9632;51.018;4.284;2023-04-25T04:43:21;9.80;99.90
18998;DHT22;9632;51.018;4.284;2023-04-25T04:45:48;9.90;99.90
18998;DHT22;9632;51.018;4.284;2023-04-25T04:48:14;9.90;99.90
18998;DHT22;9632;51.018;4.284;2023-04-25T04:50:40;9.80;99.90
18998;DHT22;9632;51.018;4.284;2023-04-25T04:53:07;9.80;99.90
18998;DHT22;9632;51.018;4.284;2023-04-25T04:55:33;9.80;99.90
18998;DHT22;9632;51.018;4.284;2023-04-25T04:57:59;9.80;99.90
18998;DHT22;9632;51.018;4.284;2023-04-25T05:00:25;9.80;99.90
18998;DHT22;9632;51.018;4.284;2023-04-25T05:02:50;9.80;99.90
18998;DHT22;9632;51.018;4.284;2023-04-25T05:05:16;9.80;99.90
18998;DHT22;9632;51.018;4.284;2023-04-25T05:07:41;9.80;99.90
18998;DHT22;9632;51.018;4.284;2023-04-25T05:10:08;9.90;99.90
18998;DHT22;9632;51.018;4.284;2023-04-25T05:12:33;9.90;99.90
18998;DHT22;9632;51.018;4.284;2023-04-25T05:14:59;9.90;99.90
18998;DHT22;9632;51.018;4.284;2023-04-25T05:17:25;9.90;99.90
18998;DHT22;9632;51.018;4.284;2023-04-25T05:19:51;9.90;99.90
18998;DHT22;9632;51.018;4.284;2023-04-25T05:22:16;9.90;99.90
18998;DHT22;9632;51.018;4.284;2023-04-25T05:24:42;10.00;99.90
18998;DHT22;9632;51.018;4.284;2023-04-25T05:27:08;10.00;99.90
18998;DHT22;9632;51.018;4.284;2023-04-25T05:29:33;10.00;99.90
18998;DHT22;9632;51.018;4.284;2023-04-25T05:32:00;10.00;99.90
18998;DHT22;9632;51.018;4.284;2023-04-25T05:34:26;10.10;99.90
18998;DHT22;9632;51.018;4.284;2023-04-25T05:36:51;10.10;99.90
18998;DHT22;9632;51.018;4.284;2023-04-25T05:39:17;10.10;99.90
18998;DHT22;9632;51.018;4.284;2023-04-25T05:41:43;10.10;99.90
18998;DHT22;9632;51.018;4.284;2023-04-25T05:44:09;10.10;99.90
18998;DHT22;9632;51.018;4.284;2023-04-25T05:46:35;10.10;99.90
18998;DHT22;9632;51.018;4.284;2023-04-25T05:49:00;10.20;99.90
18998;DHT22;9632;51.018;4.284;2023-04-25T05:51:26;10.20;99.90
18998;DHT22;9632;51.018;4.284;2023-04-25T05:53:52;10.30;99.90
18998;DHT22;9632;51.018;4.284;2023-04-25T05:56:18;10.30;99.90
18998;DHT22;9632;51.018;4.284;2023-04-25T05:58:44;10.30;99.90
18998;DHT22;9632;51.018;4.284;2023-04-25T06:01:10;10.30;99.90
18998;DHT22;9632;51.018;4.284;2023-04-25T06:03:35;10.30;99.90
18998;DHT22;9632;51.018;4.284;2023-04-25T06:06:03;10.30;99.90
18998;DHT22;9632;51.018;4.284;2023-04-25T06:08:29;10.30;99.90
18998;DHT22;9632;51.018;4.284;2023-04-25T06:10:54;10.40;99.90
18998;DHT22;9632;51.018;4.284;2023-04-25T06:13:20;10.40;99.90
18998;DHT22;9632;51.018;4.284;2023-04-25T06:15:46;10.40;99.90
18998;DHT22;9632;51.018;4.284;2023-04-25T06:18:12;10.40;99.90
18998;DHT22;9632;51.018;4.284;2023-04-25T06:20:37;10.40;99.90
18998;DHT22;9632;51.018;4.284;2023-04-25T06:23:03;10.50;99.90
18998;DHT22;9632;51.018;4.284;2023-04-25T06:25:28;10.50;99.90
18998;DHT22;9632;51.018;4.284;2023-04-25T06:27:54;10.50;99.90
18998;DHT22;9632;51.018;4.284;2023-04-25T06:30:20;10.70;99.90
18998;DHT22;9632;51.018;4.284;2023-04-25T06:32:53;10.60;99.90
18998;DHT22;9632;51.018;4.284;2023-04-25T06:35:19;10.70;99.90
18998;DHT22;9632;51.018;4.284;2023-04-25T06:37:45;10.70;99.90
18998;DHT22;9632;51.018;4.284;2023-04-25T06:40:11;10.80;99.90
18998;DHT22;9632;51.018;4.284;2023-04-25T06:42:36;10.70;99.90
18998;DHT22;9632;51.018;4.284;2023-04-25T06:45:02;10.80;99.90
18998;DHT22;9632;51.018;4.284;2023-04-25T06:47:28;10.80;99.90
18998;DHT22;9632;51.018;4.284;2023-04-25T06:49:55;10.80;99.90
18998;DHT22;9632;51.018;4.284;2023-04-25T06:52:21;10.90;99.90
18998;DHT22;9632;51.018;4.284;2023-04-25T06:54:46;10.90;99.90
18998;DHT22;9632;51.018;4.284;2023-04-25T06:57:12;10.90;99.90
18998;DHT22;9632;51.018;4.284;2023-04-25T06:59:38;10.80;99.90
18998;DHT22;9632;51.018;4.284;2023-04-25T07:02:03;10.90;99.90
18998;DHT22;9632;51.018;4.284;2023-04-25T07:04:29;10.90;99.90
18998;DHT22;9632;51.018;4.284;2023-04-25T07:06:56;10.90;99.90
18998;DHT22;9632;51.018;4.284;2023-04-25T07:09:22;11.00;99.90
18998;DHT22;9632;51.018;4.284;2023-04-25T07:11:48;11.00;99.90
18998;DHT22;9632;51.018;4.284;2023-04-25T07:14:13;11.00;99.90
18998;DHT22;9632;51.018;4.284;2023-04-25T07:16:39;11.10;99.90
18998;DHT22;9632;51.018;4.284;2023-04-25T07:19:05;11.10;99.90
18998;DHT22;9632;51.018;4.284;2023-04-25T07:21:31;11.10;99.90
18998;DHT22;9632;51.018;4.284;2023-04-25T07:23:57;11.20;99.90
18998;DHT22;9632;51.018;4.284;2023-04-25T07:26:22;11.30;99.90
18998;DHT22;9632;51.018;4.284;2023-04-25T07:28:48;11.30;99.90
18998;DHT22;9632;51.018;4.284;2023-04-25T07:31:16;11.40;99.90
18998;DHT22;9632;51.018;4.284;2023-04-25T07:33:44;11.60;99.90
18998;DHT22;9632;51.018;4.284;2023-04-25T07:36:10;11.60;99.90
18998;DHT22;9632;51.018;4.284;2023-04-25T07:38:36;11.70;99.90
18998;DHT22;9632;51.018;4.284;2023-04-25T07:41:01;11.70;99.90
18998;DHT22;9632;51.018;4.284;2023-04-25T07:43:27;11.80;99.90
18998;DHT22;9632;51.018;4.284;2023-04-25T07:45:53;11.80;99.90
18998;DHT22;9632;51.018;4.284;2023-04-25T07:48:18;11.90;99.90
18998;DHT22;9632;51.018;4.284;2023-04-25T07:50:44;12.00;99.90
18998;DHT22;9632;51.018;4.284;2023-04-25T07:53:10;12.20;99.90
18998;DHT22;9632;51.018;4.284;2023-04-25T07:55:36;12.40;99.90
18998;DHT22;9632;51.018;4.284;2023-04-25T07:58:08;12.60;99.90
18998;DHT22;9632;51.018;4.284;2023-04-25T08:00:34;12.80;99.90
18998;DHT22;9632;51.018;4.284;2023-04-25T08:03:00;12.70;99.90
18998;DHT22;9632;51.018;4.284;2023-04-25T08:05:25;12.60;99.90
18998;DHT22;9632;51.018;4.284;2023-04-25T08:07:51;12.60;99.90
18998;DHT22;9632;51.018;4.284;2023-04-25T08:10:17;12.60;99.90
18998;DHT22;9632;51.018;4.284;2023-04-25T08:12:42;12.60;99.90
18998;DHT22;9632;51.018;4.284;2023-04-25T08:15:08;12.60;99.90
18998;DHT22;9632;51.018;4.284;2023-04-25T08:17:34;12.80;99.90
18998;DHT22;9632;51.018;4.284;2023-04-25T08:20:00;12.90;99.90
18998;DHT22;9632;51.018;4.284;2023-04-25T08:22:26;12.80;99.90
18998;DHT22;9632;51.018;4.284;2023-04-25T08:24:52;12.80;99.90
18998;DHT22;9632;51.018;4.284;2023-04-25T08:27:20;12.90;99.90
18998;DHT22;9632;51.018;4.284;2023-04-25T08:29:46;13.00;99.90
18998;DHT22;9632;51.018;4.284;2023-04-25T08:32:12;13.10;99.90
18998;DHT22;9632;51.018;4.284;2023-04-25T08:34:37;13.20;99.90
18998;DHT22;9632;51.018;4.284;2023-04-25T08:37:07;13.10;99.90
18998;DHT22;9632;51.018;4.284;2023-04-25T08:39:33;13.10;99.90
18998;DHT22;9632;51.018;4.284;2023-04-25T08:42:00;13.00;99.90
18998;DHT22;9632;51.018;4.284;2023-04-25T08:44:26;12.90;99.90
18998;DHT22;9632;51.018;4.284;2023-04-25T08:46:52;12.90;99.90
18998;DHT22;9632;51.018;4.284;2023-04-25T08:49:18;12.80;99.90
18998;DHT22;9632;51.018;4.284;2023-04-25T08:51:46;12.80;99.90
18998;DHT22;9632;51.018;4.284;2023-04-25T08:54:14;12.80;99.90
18998;DHT22;9632;51.018;4.284;2023-04-25T08:56:43;12.80;99.90
18998;DHT22;9632;51.018;4.284;2023-04-25T08:59:11;12.80;99.90
18998;DHT22;9632;51.018;4.284;2023-04-25T09:01:36;12.80;99.90
18998;DHT22;9632;51.018;4.284;2023-04-25T09:04:02;12.70;99.90
18998;DHT22;9632;51.018;4.284;2023-04-25T09:06:29;12.80;99.90
18998;DHT22;9632;51.018;4.284;2023-04-25T09:09:04;12.80;99.90
18998;DHT22;9632;51.018;4.284;2023-04-25T09:11:34;12.90;99.90
18998;DHT22;9632;51.018;4.284;2023-04-25T09:14:15;13.00;99.90
18998;DHT22;9632;51.018;4.284;2023-04-25T09:19:32;13.10;99.90
18998;DHT22;9632;51.018;4.284;2023-04-25T09:22:00;13.10;99.90
18998;DHT22;9632;51.018;4.284;2023-04-25T09:24:43;13.20;99.90
18998;DHT22;9632;51.018;4.284;2023-04-25T09:27:12;13.30;99.90
18998;DHT22;9632;51.018;4.284;2023-04-25T09:29:40;13.30;99.90
18998;DHT22;9632;51.018;4.284;2023-04-25T09:34:49;13.40;99.90
18998;DHT22;9632;51.018;4.284;2023-04-25T09:37:29;13.40;99.90
18998;DHT22;9632;51.018;4.284;2023-04-25T09:39:59;13.60;99.90
18998;DHT22;9632;51.018;4.284;2023-04-25T09:42:28;13.60;99.90
18998;DHT22;9632;51.018;4.284;2023-04-25T09:44:55;13.70;99.90
18998;DHT22;9632;51.018;4.284;2023-04-25T09:47:23;13.80;99.90
18998;DHT22;9632;51.018;4.284;2023-04-25T09:49:50;13.90;99.90
18998;DHT22;9632;51.018;4.284;2023-04-25T09:52:18;14.00;99.90
18998;DHT22;9632;51.018;4.284;2023-04-25T09:54:45;14.10;99.90
18998;DHT22;9632;51.018;4.284;2023-04-25T09:59:48;14.10;99.90
18998;DHT22;9632;51.018;4.284;2023-04-25T10:02:17;14.10;99.90
18998;DHT22;9632;51.018;4.284;2023-04-25T10:04:47;14.00;99.90
18998;DHT22;9632;51.018;4.284;2023-04-25T10:07:13;14.00;99.90
18998;DHT22;9632;51.018;4.284;2023-04-25T10:09:40;14.00;99.90
18998;DHT22;9632;51.018;4.284;2023-04-25T10:12:07;14.00;99.90
18998;DHT22;9632;51.018;4.284;2023-04-25T10:14:33;14.10;99.90
18998;DHT22;9632;51.018;4.284;2023-04-25T10:17:00;14.20;99.90
18998;DHT22;9632;51.018;4.284;2023-04-25T10:19:27;14.30;99.90
18998;DHT22;9632;51.018;4.284;2023-04-25T10:22:03;14.40;99.90
18998;DHT22;9632;51.018;4.284;2023-04-25T10:24:30;14.30;99.90
18998;DHT22;9632;51.018;4.284;2023-04-25T10:26:56;14.10;99.90
18998;DHT22;9632;51.018;4.284;2023-04-25T10:29:24;14.00;99.90
18998;DHT22;9632;51.018;4.284;2023-04-25T10:31:50;13.90;99.90
18998;DHT22;9632;51.018;4.284;2023-04-25T10:34:17;13.70;99.90
18998;DHT22;9632;51.018;4.284;2023-04-25T10:36:44;13.60;99.90
18998;DHT22;9632;51.018;4.284;2023-04-25T10:39:22;13.50;99.90
18998;DHT22;9632;51.018;4.284;2023-04-25T10:44:20;13.50;99.90
18998;DHT22;9632;51.018;4.284;2023-04-25T10:46:46;13.50;99.90
18998;DHT22;9632;51.018;4.284;2023-04-25T10:49:48;13.60;99.90
18998;DHT22;9632;51.018;4.284;2023-04-25T10:52:19;13.60;99.90
18998;DHT22;9632;51.018;4.284;2023-04-25T10:54:57;13.60;99.90
18998;DHT22;9632;51.018;4.284;2023-04-25T10:57:59;13.60;99.90
18998;DHT22;9632;51.018;4.284;2023-04-25T11:00:19;13.60;99.90
18998;DHT22;9632;51.018;4.284;2023-04-25T11:02:58;13.70;99.90
18998;DHT22;9632;51.018;4.284;2023-04-25T11:05:33;13.70;99.90
18998;DHT22;9632;51.018;4.284;2023-04-25T11:07:59;13.80;99.90
18998;DHT22;9632;51.018;4.284;2023-04-25T11:10:34;13.80;99.90
18998;DHT22;9632;51.018;4.284;2023-04-25T11:13:03;14.00;99.90
18998;DHT22;9632;51.018;4.284;2023-04-25T11:15:28;14.00;99.90
18998;DHT22;9632;51.018;4.284;2023-04-25T11:17:55;14.00;99.90
18998;DHT22;9632;51.018;4.284;2023-04-25T11:20:21;14.00;99.90
18998;DHT22;9632;51.018;4.284;2023-04-25T11:22:48;14.10;99.90
18998;DHT22;9632;51.018;4.284;2023-04-25T11:25:15;14.30;99.90
18998;DHT22;9632;51.018;4.284;2023-04-25T11:27:57;14.50;99.90
18998;DHT22;9632;51.018;4.284;2023-04-25T11:30:25;14.70;99.90
18998;DHT22;9632;51.018;4.284;2023-04-25T11:32:52;14.70;99.90
18998;DHT22;9632;51.018;4.284;2023-04-25T11:35:19;14.60;99.90
18998;DHT22;9632;51.018;4.284;2023-04-25T11:37:45;14.50;99.90
18998;DHT22;9632;51.018;4.284;2023-04-25T11:40:11;14.50;99.90
18998;DHT22;9632;51.018;4.284;2023-04-25T11:42:44;14.50;99.90
18998;DHT22;9632;51.018;4.284;2023-04-25T11:45:10;14.60;99.90
18998;DHT22;9632;51.018;4.284;2023-04-25T11:47:37;14.60;99.90
18998;DHT22;9632;51.018;4.284;2023-04-25T11:50:04;14.70;99.90
18998;DHT22;9632;51.018;4.284;2023-04-25T11:52:40;14.70;99.90
18998;DHT22;9632;51.018;4.284;2023-04-25T11:55:08;14.70;99.90
18998;DHT22;9632;51.018;4.284;2023-04-25T11:57:35;14.70;99.90
18998;DHT22;9632;51.018;4.284;2023-04-25T12:00:15;14.90;99.90
18998;DHT22;9632;51.018;4.284;2023-04-25T12:02:53;15.00;99.90
18998;DHT22;9632;51.018;4.284;2023-04-25T12:05:19;14.90;99.90
18998;DHT22;9632;51.018;4.284;2023-04-25T12:07:46;15.00;99.90
18998;DHT22;9632;51.018;4.284;2023-04-25T12:10:14;15.00;99.90
18998;DHT22;9632;51.018;4.284;2023-04-25T12:12:46;15.10;99.90
18998;DHT22;9632;51.018;4.284;2023-04-25T12:15:14;15.00;99.90
18998;DHT22;9632;51.018;4.284;2023-04-25T12:17:42;14.90;99.90
18998;DHT22;9632;51.018;4.284;2023-04-25T12:20:09;14.80;99.90
18998;DHT22;9632;51.018;4.284;2023-04-25T12:22:35;14.60;99.90
18998;DHT22;9632;51.018;4.284;2023-04-25T12:25:02;14.50;99.90
18998;DHT22;9632;51.018;4.284;2023-04-25T12:27:31;14.40;99.90
18998;DHT22;9632;51.018;4.284;2023-04-25T12:29:57;14.30;99.90
18998;DHT22;9632;51.018;4.284;2023-04-25T12:32:23;14.30;99.90
18998;DHT22;9632;51.018;4.284;2023-04-25T12:34:52;14.30;99.90
18998;DHT22;9632;51.018;4.284;2023-04-25T12:37:18;14.30;99.90
18998;DHT22;9632;51.018;4.284;2023-04-25T12:39:43;14.40;99.90
18998;DHT22;9632;51.018;4.284;2023-04-25T12:42:09;14.50;99.90
18998;DHT22;9632;51.018;4.284;2023-04-25T12:44:37;14.60;99.90
18998;DHT22;9632;51.018;4.284;2023-04-25T12:47:03;14.70;99.90
18998;DHT22;9632;51.018;4.284;2023-04-25T12:49:29;14.70;99.90
18998;DHT22;9632;51.018;4.284;2023-04-25T12:51:55;14.60;99.90
18998;DHT22;9632;51.018;4.284;2023-04-25T12:54:21;14.60;99.90
18998;DHT22;9632;51.018;4.284;2023-04-25T12:56:46;14.50;99.90
18998;DHT22;9632;51.018;4.284;2023-04-25T12:59:12;14.50;99.90
18998;DHT22;9632;51.018;4.284;2023-04-25T13:01:38;14.60;99.90
18998;DHT22;9632;51.018;4.284;2023-04-25T13:04:04;14.60;99.90
18998;DHT22;9632;51.018;4.284;2023-04-25T13:06:29;14.70;99.90
18998;DHT22;9632;51.018;4.284;2023-04-25T13:08:56;14.60;99.90
18998;DHT22;9632;51.018;4.284;2023-04-25T13:11:21;14.60;99.90
18998;DHT22;9632;51.018;4.284;2023-04-25T13:13:47;14.30;99.90
18998;DHT22;9632;51.018;4.284;2023-04-25T13:16:13;14.20;99.90
18998;DHT22;9632;51.018;4.284;2023-04-25T13:18:41;14.20;99.90
18998;DHT22;9632;51.018;4.284;2023-04-25T13:21:09;14.00;99.90
18998;DHT22;9632;51.018;4.284;2023-04-25T13:23:36;13.80;99.90
18998;DHT22;9632;51.018;4.284;2023-04-25T13:26:01;13.80;99.90
18998;DHT22;9632;51.018;4.284;2023-04-25T13:28:27;13.80;99.90
18998;DHT22;9632;51.018;4.284;2023-04-25T13:30:53;13.80;99.90
18998;DHT22;9632;51.018;4.284;2023-04-25T13:33:20;13.90;99.90
18998;DHT22;9632;51.018;4.284;2023-04-25T13:35:47;13.90;99.90
18998;DHT22;9632;51.018;4.284;2023-04-25T13:38:22;13.90;99.90
18998;DHT22;9632;51.018;4.284;2023-04-25T13:40:48;13.90;99.90
18998;DHT22;9632;51.018;4.284;2023-04-25T13:43:14;14.10;99.90
18998;DHT22;9632;51.018;4.284;2023-04-25T13:45:40;14.10;99.90
18998;DHT22;9632;51.018;4.284;2023-04-25T13:48:06;14.10;99.90
18998;DHT22;9632;51.018;4.284;2023-04-25T13:50:32;14.20;99.90
18998;DHT22;9632;51.018;4.284;2023-04-25T13:52:57;14.20;99.90
18998;DHT22;9632;51.018;4.284;2023-04-25T13:55:23;14.30;99.90
18998;DHT22;9632;51.018;4.284;2023-04-25T13:57:49;14.30;99.90
18998;DHT22;9632;51.018;4.284;2023-04-25T14:00:15;14.30;99.90
18998;DHT22;9632;51.018;4.284;2023-04-25T14:02:40;14.30;99.90
18998;DHT22;9632;51.018;4.284;2023-04-25T14:05:06;14.30;99.90
18998;DHT22;9632;51.018;4.284;2023-04-25T14:07:36;14.40;99.90
18998;DHT22;9632;51.018;4.284;2023-04-25T14:10:03;14.40;99.90
18998;DHT22;9632;51.018;4.284;2023-04-25T14:12:30;14.40;99.90
18998;DHT22;9632;51.018;4.284;2023-04-25T14:14:55;14.40;99.90
18998;DHT22;9632;51.018;4.284;2023-04-25T14:17:21;14.30;99.90
18998;DHT22;9632;51.018;4.284;2023-04-25T14:19:46;14.30;99.90
18998;DHT22;9632;51.018;4.284;2023-04-25T14:22:14;14.20;99.90
18998;DHT22;9632;51.018;4.284;2023-04-25T14:24:40;14.10;99.90
18998;DHT22;9632;51.018;4.284;2023-04-25T14:27:06;14.20;99.90
18998;DHT22;9632;51.018;4.284;2023-04-25T14:29:32;14.10;99.90
18998;DHT22;9632;51.018;4.284;2023-04-25T14:31:58;14.10;99.90
18998;DHT22;9632;51.018;4.284;2023-04-25T14:34:24;14.00;99.90
18998;DHT22;9632;51.018;4.284;2023-04-25T14:36:51;14.00;99.90
18998;DHT22;9632;51.018;4.284;2023-04-25T14:39:17;14.00;99.90
18998;DHT22;9632;51.018;4.284;2023-04-25T14:41:43;14.00;99.90
18998;DHT22;9632;51.018;4.284;2023-04-25T14:44:09;14.00;99.90
18998;DHT22;9632;51.018;4.284;2023-04-25T14:46:36;13.90;99.90
18998;DHT22;9632;51.018;4.284;2023-04-25T14:49:02;13.90;99.90
18998;DHT22;9632;51.018;4.284;2023-04-25T14:51:28;13.90;99.90
18998;DHT22;9632;51.018;4.284;2023-04-25T14:53:54;13.80;99.90
18998;DHT22;9632;51.018;4.284;2023-04-25T14:56:19;13.80;99.90
18998;DHT22;9632;51.018;4.284;2023-04-25T14:58:45;13.80;99.90
18998;DHT22;9632;51.018;4.284;2023-04-25T15:01:12;13.70;99.90
18998;DHT22;9632;51.018;4.284;2023-04-25T15:03:39;13.70;99.90
18998;DHT22;9632;51.018;4.284;2023-04-25T15:06:05;13.60;99.90
18998;DHT22;9632;51.018;4.284;2023-04-25T15:08:31;13.50;99.90
18998;DHT22;9632;51.018;4.284;2023-04-25T15:10:58;13.60;99.90
18998;DHT22;9632;51.018;4.284;2023-04-25T15:13:24;13.50;99.90
18998;DHT22;9632;51.018;4.284;2023-04-25T15:15:50;13.50;99.90
18998;DHT22;9632;51.018;4.284;2023-04-25T15:18:20;13.50;99.90
18998;DHT22;9632;51.018;4.284;2023-04-25T15:20:50;13.50;99.90
18998;DHT22;9632;51.018;4.284;2023-04-25T15:23:18;13.50;99.90
18998;DHT22;9632;51.018;4.284;2023-04-25T15:25:44;13.50;99.90
18998;DHT22;9632;51.018;4.284;2023-04-25T15:28:10;13.50;99.90
18998;DHT22;9632;51.018;4.284;2023-04-25T15:30:36;13.40;99.90
18998;DHT22;9632;51.018;4.284;2023-04-25T15:33:02;13.40;99.90
18998;DHT22;9632;51.018;4.284;2023-04-25T15:35:28;13.40;99.90
18998;DHT22;9632;51.018;4.284;2023-04-25T15:37:53;13.30;99.90
18998;DHT22;9632;51.018;4.284;2023-04-25T15:40:19;13.30;99.90
18998;DHT22;9632;51.018;4.284;2023-04-25T15:42:46;13.20;99.90
18998;DHT22;9632;51.018;4.284;2023-04-25T15:45:13;13.20;99.90
18998;DHT22;9632;51.018;4.284;2023-04-25T15:47:40;13.20;99.90
18998;DHT22;9632;51.018;4.284;2023-04-25T15:50:07;13.20;99.90
18998;DHT22;9632;51.018;4.284;2023-04-25T15:52:34;13.10;99.90
18998;DHT22;9632;51.018;4.284;2023-04-25T15:55:01;13.10;99.90